Time;durP1;ratioP1;P1;durP2;ratioP2;P2;SDS_P1;SDS_P2;PMS_P1;PMS_P2;Temp;Humidity;BMP_temperature;BMP_pressure;BME280_temperature;BME280_humidity;BME280_pressure;Samples;Min_cycle;Max_cycle;Signal;HPM_P1;HPM_P2
2021/09/01 00:00:50;;;;;;;13.77;6.13;;;;;;;15.03;100.00;101871.38;4991107;28;20252;-74
2021/09/01 00:03:18;;;;;;;15.20;7.27;;;;;;;14.88;100.00;101870.56;4994699;28;20210;-76
2021/09/01 00:05:48;;;;;;;17.70;7.03;;;;;;;15.05;100.00;101868.38;5026699;28;20220;-74
2021/09/01 00:08:14;;;;;;;19.40;7.20;;;;;;;15.23;100.00;101870.63;4962634;28;20929;-74
2021/09/01 00:10:47;;;;;;;16.93;7.37;;;;;;;15.24;100.00;101873.09;5004968;28;20213;-75
2021/09/01 00:13:12;;;;;;;17.27;7.38;;;;;;;15.23;100.00;101876.94;4995080;28;20489;-73
2021/09/01 00:15:43;;;;;;;14.50;6.85;;;;;;;15.31;100.00;101878.28;5006820;28;20217;-76
2021/09/01 00:18:09;;;;;;;14.87;5.93;;;;;;;15.39;100.00;101875.84;4994093;28;20272;-75
2021/09/01 00:20:38;;;;;;;14.18;6.43;;;;;;;15.39;100.00;101878.59;4997098;28;20221;-75
2021/09/01 00:23:14;;;;;;;19.23;6.97;;;;;;;15.40;100.00;101877.47;5014900;28;20193;-76
2021/09/01 00:25:42;;;;;;;14.33;6.80;;;;;;;15.45;100.00;101883.78;4998938;28;20228;-75
2021/09/01 00:28:08;;;;;;;15.80;6.38;;;;;;;15.29;100.00;101884.06;4997869;28;20213;-75
2021/09/01 00:30:36;;;;;;;13.45;6.22;;;;;;;15.40;100.00;101888.44;4997565;28;20646;-75
2021/09/01 00:33:02;;;;;;;13.93;6.32;;;;;;;15.47;100.00;101884.31;5011184;28;20655;-75
2021/09/01 00:35:30;;;;;;;12.20;6.20;;;;;;;15.25;100.00;101879.41;4994775;28;20264;-75
2021/09/01 00:38:00;;;;;;;19.75;6.93;;;;;;;15.38;100.00;101884.34;5013677;28;20699;-75
2021/09/01 00:40:31;;;;;;;14.15;6.53;;;;;;;15.37;100.00;101889.00;5022232;28;20217;-76
2021/09/01 00:42:56;;;;;;;15.90;6.30;;;;;;;15.46;100.00;101881.88;5014586;28;20188;-76
2021/09/01 00:45:22;;;;;;;16.83;7.20;;;;;;;15.43;100.00;101882.41;4997389;28;20207;-75
2021/09/01 00:47:49;;;;;;;17.17;6.75;;;;;;;15.16;100.00;101876.41;4994369;28;20703;-75
2021/09/01 00:50:15;;;;;;;15.27;6.70;;;;;;;15.27;100.00;101879.94;4978397;28;20608;-75
2021/09/01 00:52:43;;;;;;;17.10;6.33;;;;;;;15.16;100.00;101881.88;4999255;28;20212;-75
2021/09/01 00:55:10;;;;;;;18.33;6.77;;;;;;;15.11;100.00;101873.59;4997951;28;20177;-76
2021/09/01 00:57:42;;;;;;;12.50;6.33;;;;;;;15.17;100.00;101878.03;4998283;28;20308;-75
2021/09/01 01:00:12;;;;;;;17.67;6.80;;;;;;;15.27;100.00;101883.50;4997167;28;20257;-73
2021/09/01 01:02:40;;;;;;;12.60;6.03;;;;;;;15.26;100.00;101876.41;4982277;28;20185;-74
2021/09/01 01:05:09;;;;;;;17.80;6.82;;;;;;;15.12;100.00;101877.97;4981727;28;20212;-74
2021/09/01 01:07:38;;;;;;;14.95;7.18;;;;;;;15.09;100.00;101866.75;4997159;28;20312;-74
2021/09/01 01:10:07;;;;;;;14.63;6.30;;;;;;;15.20;100.00;101877.50;5004735;28;20255;-73
2021/09/01 01:12:33;;;;;;;13.73;6.37;;;;;;;15.35;100.00;101877.50;5030118;28;20216;-74
2021/09/01 01:15:01;;;;;;;20.25;7.25;;;;;;;15.10;100.00;101876.63;5030106;28;20173;-73
2021/09/01 01:17:27;;;;;;;14.27;6.47;;;;;;;15.41;100.00;101885.41;4964050;28;20364;-73
2021/09/01 01:19:52;;;;;;;17.02;6.47;;;;;;;15.41;100.00;101879.94;4993414;28;20648;-73
2021/09/01 01:22:25;;;;;;;20.42;6.97;;;;;;;15.42;100.00;101880.78;5009609;28;20245;-76
2021/09/01 01:25:03;;;;;;;16.03;6.93;;;;;;;15.56;100.00;101881.88;4991747;28;20280;-73
2021/09/01 01:27:47;;;;;;;15.53;6.97;;;;;;;15.37;100.00;101883.50;5009338;28;20239;-74
2021/09/01 01:30:19;;;;;;;17.07;6.43;;;;;;;15.36;100.00;101883.78;4993572;28;20540;-75
2021/09/01 01:32:49;;;;;;;18.73;6.70;;;;;;;15.08;100.00;101887.81;4977284;28;20194;-74
2021/09/01 01:35:33;;;;;;;17.33;6.60;;;;;;;15.24;100.00;101891.47;4977232;28;20653;-74
2021/09/01 01:38:02;;;;;;;17.27;6.23;;;;;;;15.20;100.00;101885.72;4994065;28;20205;-76
2021/09/01 01:40:33;;;;;;;17.63;6.73;;;;;;;15.03;100.00;101892.47;5005875;28;20311;-75
2021/09/01 01:42:58;;;;;;;16.60;6.55;;;;;;;14.86;100.00;101886.41;5033512;28;20181;-75
2021/09/01 01:45:37;;;;;;;23.73;6.57;;;;;;;14.67;100.00;101882.56;4996273;28;20232;-76
2021/09/01 01:48:03;;;;;;;16.93;6.20;;;;;;;14.75;100.00;101890.22;4995525;28;20223;-75
2021/09/01 01:50:33;;;;;;;17.40;6.70;;;;;;;14.71;100.00;101882.84;4996096;28;20304;-76
2021/09/01 01:53:04;;;;;;;12.33;6.20;;;;;;;14.76;100.00;101885.56;5029726;28;20185;-75
2021/09/01 01:55:32;;;;;;;15.88;7.00;;;;;;;14.99;100.00;101879.63;4995847;28;20220;-74
2021/09/01 01:57:58;;;;;;;17.47;6.77;;;;;;;14.98;100.00;101883.44;5012179;28;20271;-73
2021/09/01 02:00:26;;;;;;;17.50;7.03;;;;;;;15.04;100.00;101889.47;5011935;28;20437;-76
2021/09/01 02:02:52;;;;;;;18.40;6.90;;;;;;;14.92;100.00;101884.53;4996415;28;20288;-76
2021/09/01 02:05:20;;;;;;;13.07;6.57;;;;;;;14.92;100.00;101890.81;5011891;28;20205;-76
2021/09/01 02:07:45;;;;;;;15.97;6.70;;;;;;;14.92;100.00;101890.00;4996639;28;20209;-74
2021/09/01 02:10:11;;;;;;;15.63;6.43;;;;;;;14.86;100.00;101885.63;4967625;28;20208;-75
2021/09/01 02:12:39;;;;;;;13.13;6.07;;;;;;;14.77;100.00;101884.50;4997879;28;20211;-74
2021/09/01 02:15:06;;;;;;;16.63;6.13;;;;;;;14.81;100.00;101885.59;5018581;28;20249;-74
2021/09/01 02:17:34;;;;;;;13.47;6.77;;;;;;;15.00;100.00;101891.09;5012247;28;20220;-74
2021/09/01 02:19:59;;;;;;;15.17;6.57;;;;;;;14.95;100.00;101889.47;5028403;28;20216;-77
2021/09/01 02:22:27;;;;;;;15.73;6.37;;;;;;;15.02;100.00;101888.09;4995465;28;20730;-76
2021/09/01 02:24:53;;;;;;;14.67;6.80;;;;;;;15.04;100.00;101894.13;5028466;28;20200;-76
2021/09/01 02:27:21;;;;;;;17.17;7.00;;;;;;;15.09;100.00;101891.38;4978947;28;20233;-75
2021/09/01 02:29:48;;;;;;;15.67;7.07;;;;;;;15.10;100.00;101893.84;4992031;28;20185;-74
2021/09/01 02:32:16;;;;;;;17.70;7.10;;;;;;;15.02;100.00;101896.31;4992207;28;20217;-77
2021/09/01 02:34:44;;;;;;;14.90;7.10;;;;;;;14.99;100.00;101886.72;5000577;28;20181;-74
2021/09/01 02:37:12;;;;;;;15.73;6.93;;;;;;;15.01;100.00;101890.00;5011663;28;20320;-75
2021/09/01 02:39:37;;;;;;;19.67;6.80;;;;;;;14.85;100.00;101890.28;4991832;28;20205;-76
2021/09/01 02:42:03;;;;;;;16.70;6.77;;;;;;;14.81;100.00;101888.31;5017746;28;20247;-76
2021/09/01 02:44:33;;;;;;;16.27;7.00;;;;;;;15.02;100.00;101886.19;4980446;28;20651;-76
2021/09/01 02:47:03;;;;;;;20.03;6.40;;;;;;;14.81;100.00;101893.78;4979122;28;20311;-76
2021/09/01 02:49:29;;;;;;;14.73;6.47;;;;;;;14.82;100.00;101889.97;4977028;28;20193;-75
2021/09/01 02:51:56;;;;;;;15.30;6.25;;;;;;;14.90;100.00;101894.91;4976144;28;20656;-77
2021/09/01 02:54:22;;;;;;;14.33;6.17;;;;;;;14.99;100.00;101893.31;4979650;28;20189;-75
2021/09/01 02:56:50;;;;;;;17.33;6.50;;;;;;;15.17;100.00;101883.50;5011266;28;20239;-76
2021/09/01 02:59:18;;;;;;;21.27;6.67;;;;;;;15.22;100.00;101891.72;4995627;28;20181;-76
2021/09/01 03:01:43;;;;;;;14.82;5.70;;;;;;;15.14;100.00;101894.97;4994919;28;20240;-75
2021/09/01 03:04:09;;;;;;;16.23;6.28;;;;;;;15.31;100.00;101895.56;5012122;28;20177;-75
2021/09/01 03:06:34;;;;;;;13.30;6.20;;;;;;;15.16;100.00;101890.09;5027471;28;20278;-75
2021/09/01 03:09:00;;;;;;;13.53;5.77;;;;;;;15.10;100.00;101890.31;4983602;28;20211;-76
2021/09/01 03:11:25;;;;;;;12.43;5.93;;;;;;;15.14;100.00;101896.91;4996921;28;20224;-76
2021/09/01 03:13:51;;;;;;;14.93;6.37;;;;;;;15.31;100.00;101890.09;5014989;28;20176;-76
2021/09/01 03:16:19;;;;;;;12.43;6.05;;;;;;;15.53;100.00;101890.63;4982788;28;20256;-74
2021/09/01 03:18:45;;;;;;;14.48;5.80;;;;;;;15.47;100.00;101888.97;5027713;28;20219;-75
2021/09/01 03:21:15;;;;;;;13.27;6.30;;;;;;;15.31;100.00;101883.78;5007646;28;20699;-74
2021/09/01 03:23:41;;;;;;;11.77;5.97;;;;;;;15.39;100.00;101887.63;4980352;28;20686;-74
2021/09/01 03:26:08;;;;;;;14.18;5.43;;;;;;;15.34;100.00;101895.00;4980017;28;20319;-74
2021/09/01 03:28:36;;;;;;;12.57;6.30;;;;;;;15.31;100.00;101884.63;5022829;28;20713;-74
2021/09/01 03:31:04;;;;;;;12.70;5.80;;;;;;;15.16;100.00;101890.09;5040133;28;20212;-75
2021/09/01 03:33:34;;;;;;;12.50;5.63;;;;;;;15.27;100.00;101888.97;5013841;28;20280;-76
2021/09/01 03:36:00;;;;;;;13.77;5.82;;;;;;;15.14;100.00;101897.72;4984865;28;20224;-75
2021/09/01 03:38:28;;;;;;;14.17;5.80;;;;;;;15.09;100.00;101899.59;5009957;28;20327;-76
2021/09/01 03:40:56;;;;;;;13.43;6.27;;;;;;;15.11;100.00;101890.03;5010267;28;20235;-74
2021/09/01 03:43:21;;;;;;;15.37;6.50;;;;;;;15.23;100.00;101887.88;5032347;28;20184;-76
2021/09/01 03:45:51;;;;;;;12.43;6.40;;;;;;;15.29;100.00;101889.53;5024831;28;20224;-75
2021/09/01 03:48:17;;;;;;;13.93;6.60;;;;;;;15.32;100.00;101886.25;5031075;28;20212;-76
2021/09/01 03:50:42;;;;;;;12.27;6.97;;;;;;;15.23;100.00;101889.81;5024555;28;20227;-75
2021/09/01 03:53:13;;;;;;;12.77;6.57;;;;;;;15.21;100.00;101887.31;4986084;28;20573;-74
2021/09/01 03:55:39;;;;;;;15.23;7.23;;;;;;;15.19;100.00;101892.25;5012671;28;20231;-74
2021/09/01 03:58:11;;;;;;;16.57;7.87;;;;;;;15.09;100.00;101903.16;5026236;28;20201;-74
2021/09/01 04:00:40;;;;;;;13.13;6.97;;;;;;;14.89;100.00;101896.00;4992223;28;20243;-75
2021/09/01 04:03:11;;;;;;;13.13;6.80;;;;;;;15.07;100.00;101888.94;5033081;28;20225;-74
2021/09/01 04:05:39;;;;;;;13.32;7.10;;;;;;;15.04;100.00;101905.06;4982953;28;20225;-74
2021/09/01 04:08:05;;;;;;;11.13;6.60;;;;;;;15.09;100.00;101905.91;4966075;28;20598;-73
2021/09/01 04:10:33;;;;;;;13.88;7.20;;;;;;;15.13;100.00;101912.50;5007631;28;20221;-74
2021/09/01 04:13:04;;;;;;;14.07;6.47;;;;;;;15.03;100.00;101906.16;5035134;28;20526;-75
2021/09/01 04:15:31;;;;;;;14.10;6.80;;;;;;;15.09;100.00;101902.31;5019209;28;20307;-76
2021/09/01 04:17:57;;;;;;;13.50;6.90;;;;;;;14.97;100.00;101915.47;5016238;28;20208;-74
2021/09/01 04:20:22;;;;;;;14.23;7.00;;;;;;;15.00;100.00;101907.53;4983272;28;20228;-74
2021/09/01 04:22:48;;;;;;;13.30;6.80;;;;;;;15.12;100.00;101913.56;4984036;28;20215;-75
2021/09/01 04:25:16;;;;;;;14.47;6.80;;;;;;;15.23;100.00;101915.25;5014369;28;20194;-74
2021/09/01 04:27:42;;;;;;;14.27;6.83;;;;;;;15.21;100.00;101908.41;5012901;28;20579;-75
2021/09/01 04:30:08;;;;;;;17.53;7.23;;;;;;;15.21;100.00;101917.44;5007132;28;20223;-75
2021/09/01 04:32:36;;;;;;;14.20;6.90;;;;;;;15.24;100.00;101919.66;5013716;28;20189;-75
2021/09/01 04:35:02;;;;;;;12.90;6.83;;;;;;;15.43;100.00;101916.09;5021034;28;20678;-76
2021/09/01 04:37:27;;;;;;;13.85;7.07;;;;;;;15.39;100.00;101914.19;5024783;28;20220;-75
2021/09/01 04:39:57;;;;;;;12.93;6.50;;;;;;;15.34;100.00;101916.91;5026209;28;20189;-75
2021/09/01 04:42:23;;;;;;;14.32;7.03;;;;;;;15.30;100.00;101920.47;5017500;28;20216;-75
2021/09/01 04:44:51;;;;;;;14.88;7.00;;;;;;;15.39;100.00;101924.31;4997764;28;20185;-76
2021/09/01 04:47:17;;;;;;;18.17;6.67;;;;;;;15.63;100.00;101926.25;5013016;28;20229;-76
2021/09/01 04:49:46;;;;;;;15.53;7.10;;;;;;;15.58;100.00;101931.72;4998053;28;20181;-75
2021/09/01 04:52:14;;;;;;;16.50;7.40;;;;;;;15.55;100.00;101929.53;5008942;28;20315;-76
2021/09/01 04:54:42;;;;;;;15.68;6.93;;;;;;;15.59;100.00;101925.16;4994364;28;20189;-76
2021/09/01 04:57:10;;;;;;;14.43;6.73;;;;;;;15.57;100.00;101927.34;4981992;28;20232;-75
2021/09/01 04:59:38;;;;;;;17.08;7.40;;;;;;;15.62;100.00;101930.06;5014016;28;20666;-75
2021/09/01 05:02:04;;;;;;;15.60;6.70;;;;;;;15.64;100.00;101930.59;4997425;28;20228;-74
2021/09/01 05:04:32;;;;;;;14.35;6.47;;;;;;;15.62;100.00;101921.84;5015285;28;20269;-76
2021/09/01 05:06:59;;;;;;;13.52;6.60;;;;;;;15.71;100.00;101931.16;4998143;28;20320;-74
2021/09/01 05:09:27;;;;;;;15.18;6.70;;;;;;;15.64;100.00;101939.66;4996186;28;20200;-75
2021/09/01 05:11:53;;;;;;;16.67;7.78;;;;;;;15.70;100.00;101935.81;5003934;28;20221;-75
2021/09/01 05:14:21;;;;;;;18.10;7.00;;;;;;;15.76;100.00;101942.13;4997314;28;20643;-74
2021/09/01 05:16:49;;;;;;;15.40;7.05;;;;;;;15.77;100.00;101943.75;5012791;28;20287;-75
2021/09/01 05:19:17;;;;;;;16.85;6.53;;;;;;;15.88;100.00;101947.06;4979164;28;20185;-76
2021/09/01 05:21:47;;;;;;;16.80;6.65;;;;;;;15.87;100.00;101953.63;4981514;28;20221;-79
2021/09/01 05:24:22;;;;;;;16.27;6.55;;;;;;;16.21;100.00;101946.50;4989276;28;20184;-75
2021/09/01 05:26:48;;;;;;;16.92;6.72;;;;;;;16.20;100.00;101961.28;5014814;28;20235;-76
2021/09/01 05:29:15;;;;;;;16.65;6.00;;;;;;;15.81;100.00;101956.66;4979825;28;20185;-76
2021/09/01 05:31:44;;;;;;;15.05;6.22;;;;;;;15.78;100.00;101957.19;4976696;28;20224;-77
2021/09/01 05:34:12;;;;;;;13.98;6.88;;;;;;;15.71;100.00;101958.56;4961152;28;20421;-75
2021/09/01 05:36:44;;;;;;;15.90;6.43;;;;;;;15.88;100.00;101963.50;5004522;28;20224;-75
2021/09/01 05:39:10;;;;;;;15.45;6.40;;;;;;;15.93;100.00;101959.91;5004199;28;20198;-76
2021/09/01 05:41:38;;;;;;;14.70;6.53;;;;;;;15.80;100.00;101961.31;5014414;28;20212;-74
2021/09/01 05:44:06;;;;;;;14.43;6.60;;;;;;;15.91;100.00;101960.19;4995683;28;20185;-73
2021/09/01 05:46:31;;;;;;;12.60;5.85;;;;;;;15.78;100.00;101959.94;5002721;28;20231;-74
2021/09/01 05:48:56;;;;;;;13.95;6.18;;;;;;;16.05;100.00;101969.50;5005954;28;20200;-73
2021/09/01 05:51:22;;;;;;;12.90;6.20;;;;;;;15.76;100.00;101964.06;5030051;28;20251;-73
2021/09/01 05:53:51;;;;;;;13.98;6.50;;;;;;;15.88;100.00;101966.25;5016600;28;20709;-72
2021/09/01 05:56:26;;;;;;;14.52;5.75;;;;;;;15.81;100.00;101962.94;5016126;28;20365;-72
2021/09/01 05:58:54;;;;;;;12.80;6.13;;;;;;;15.96;100.00;101976.63;5004022;28;20189;-73
2021/09/01 06:01:25;;;;;;;12.48;6.20;;;;;;;15.91;100.00;101968.41;4994397;28;20216;-73
2021/09/01 06:03:50;;;;;;;15.00;6.28;;;;;;;15.81;100.00;101968.44;4996555;28;20704;-72
2021/09/01 06:06:21;;;;;;;17.55;6.78;;;;;;;15.70;100.00;101970.63;4996036;28;20228;-75
2021/09/01 06:08:53;;;;;;;13.77;6.35;;;;;;;15.76;100.00;101969.53;5007590;28;20211;-74
2021/09/01 06:11:25;;;;;;;14.20;6.73;;;;;;;15.68;100.00;101970.09;4999188;28;20274;-75
2021/09/01 06:13:57;;;;;;;17.87;6.90;;;;;;;15.66;100.00;101975.00;5000479;28;20190;-75
2021/09/01 06:16:28;;;;;;;13.80;6.07;;;;;;;15.68;100.00;101986.53;4992846;28;20221;-74
2021/09/01 06:18:53;;;;;;;15.40;7.10;;;;;;;15.63;100.00;101987.31;4973313;28;20223;-74
2021/09/01 06:21:24;;;;;;;17.17;6.88;;;;;;;15.51;100.00;101988.69;4995863;28;20221;-74
2021/09/01 06:23:53;;;;;;;13.73;6.60;;;;;;;15.81;100.00;101990.34;4993887;28;20196;-75
2021/09/01 06:26:19;;;;;;;15.07;6.57;;;;;;;16.00;100.00;101994.16;4977264;28;20221;-74
2021/09/01 06:28:44;;;;;;;14.23;5.70;;;;;;;16.04;100.00;101998.00;4996633;28;20213;-74
2021/09/01 06:31:13;;;;;;;14.30;6.38;;;;;;;16.02;100.00;101999.38;4995930;28;20579;-73
2021/09/01 06:33:38;;;;;;;16.02;5.70;;;;;;;16.37;100.00;101994.72;4995632;28;20177;-75
2021/09/01 06:36:04;;;;;;;13.65;5.53;;;;;;;16.45;100.00;101996.91;5012427;28;20232;-74
2021/09/01 06:38:32;;;;;;;18.52;6.13;;;;;;;16.37;100.00;102000.19;4980546;28;20570;-76
2021/09/01 06:41:01;;;;;;;14.07;5.20;;;;;;;16.27;100.00;101995.56;5026467;28;20212;-72
2021/09/01 06:43:26;;;;;;;12.35;5.32;;;;;;;16.25;100.00;101996.94;4995294;28;20185;-73
2021/09/01 06:45:57;;;;;;;15.02;5.55;;;;;;;16.08;100.00;102001.03;4994294;28;20247;-74
2021/09/01 06:48:22;;;;;;;11.55;5.38;;;;;;;16.15;100.00;101996.09;5012403;28;20236;-74
2021/09/01 06:50:50;;;;;;;14.70;5.78;;;;;;;16.13;100.00;101993.63;4962981;28;20851;-76
2021/09/01 06:53:16;;;;;;;15.32;6.28;;;;;;;16.32;100.00;101994.75;4996975;28;20224;-74
2021/09/01 06:55:41;;;;;;;15.48;5.82;;;;;;;16.46;100.00;101999.34;5028248;28;20598;-74
2021/09/01 06:58:16;;;;;;;12.98;5.30;;;;;;;16.37;100.00;101990.06;4978384;28;20205;-74
2021/09/01 07:00:42;;;;;;;14.30;5.60;;;;;;;16.47;100.00;101994.69;4978560;28;20239;-73
2021/09/01 07:03:10;;;;;;;11.90;5.68;;;;;;;16.50;100.00;101994.97;4978869;28;20193;-74
2021/09/01 07:05:35;;;;;;;10.85;5.20;;;;;;;16.67;100.00;102001.75;4995512;28;20256;-76
2021/09/01 07:08:14;;;;;;;13.43;5.60;;;;;;;16.59;100.00;102005.09;4994643;28;20200;-75
2021/09/01 07:10:41;;;;;;;13.95;5.20;;;;;;;16.74;100.00;102001.44;5004535;28;20240;-75
2021/09/01 07:13:07;;;;;;;11.10;5.93;;;;;;;16.93;100.00;102004.13;5031037;28;20188;-74
2021/09/01 07:15:35;;;;;;;13.00;5.45;;;;;;;16.74;100.00;101996.81;4997087;28;20217;-74
2021/09/01 07:18:03;;;;;;;12.85;5.70;;;;;;;16.83;100.00;102008.84;4978333;28;20209;-73
2021/09/01 07:20:31;;;;;;;11.05;5.88;;;;;;;16.64;100.00;102001.50;4994249;28;20224;-74
2021/09/01 07:22:56;;;;;;;21.33;15.13;;;;;;;16.79;100.00;102010.50;5011077;28;20248;-75
2021/09/01 07:25:24;;;;;;;12.75;5.40;;;;;;;16.86;100.00;102016.50;4990519;28;20219;-75
2021/09/01 07:27:55;;;;;;;12.07;5.65;;;;;;;16.99;100.00;102013.97;4999336;28;20677;-74
2021/09/01 07:30:20;;;;;;;8.45;5.22;;;;;;;16.80;100.00;102016.81;4981833;28;20184;-75
2021/09/01 07:32:48;;;;;;;10.60;5.18;;;;;;;16.48;100.00;102023.75;4995067;28;20569;-76
2021/09/01 07:35:19;;;;;;;9.02;5.20;;;;;;;16.70;100.00;102023.19;5011767;28;20192;-74
2021/09/01 07:37:49;;;;;;;13.18;5.25;;;;;;;16.62;100.00;102029.22;4979813;28;20712;-77
2021/09/01 07:40:16;;;;;;;8.90;5.30;;;;;;;16.82;100.00;102026.41;4972764;28;20188;-76
2021/09/01 07:42:44;;;;;;;11.05;5.20;;;;;;;16.67;100.00;102022.91;4980203;28;20200;-75
2021/09/01 07:45:13;;;;;;;10.23;5.10;;;;;;;16.92;100.00;102025.56;4991771;28;20201;-76
2021/09/01 07:47:54;;;;;;;11.85;5.13;;;;;;;17.34;100.00;102028.41;4992378;28;20210;-76
2021/09/01 07:50:27;;;;;;;9.75;5.00;;;;;;;17.11;100.00;102025.47;4995590;28;20196;-77
2021/09/01 07:52:55;;;;;;;10.38;5.18;;;;;;;17.47;100.00;102030.53;5011852;28;20264;-76
2021/09/01 07:55:23;;;;;;;10.00;5.05;;;;;;;17.33;100.00;102033.38;4962771;28;20185;-76
2021/09/01 07:57:51;;;;;;;10.52;4.90;;;;;;;17.28;100.00;102036.94;4995053;28;20216;-76
2021/09/01 08:00:21;;;;;;;11.48;5.20;;;;;;;17.62;100.00;102038.69;4994190;28;20185;-75
2021/09/01 08:02:52;;;;;;;11.20;5.03;;;;;;;17.64;100.00;102041.97;5011258;28;20666;-78
2021/09/01 08:05:21;;;;;;;10.10;5.53;;;;;;;17.20;100.00;102044.97;4985375;28;20240;-76
2021/09/01 08:07:51;;;;;;;10.90;5.03;;;;;;;17.28;100.00;102047.94;4975394;28;20289;-76
2021/09/01 08:10:17;;;;;;;12.27;5.57;;;;;;;17.28;100.00;102044.38;5007893;28;20239;-77
2021/09/01 08:12:45;;;;;;;11.63;5.30;;;;;;;17.54;100.00;102053.00;5028462;28;20222;-76
2021/09/01 08:15:13;;;;;;;11.20;5.53;;;;;;;17.44;100.00;102063.25;5007169;28;20205;-75
2021/09/01 08:17:43;;;;;;;9.75;5.13;;;;;;;17.45;100.00;102065.72;4984701;28;20756;-76
2021/09/01 08:20:09;;;;;;;10.00;5.70;;;;;;;17.51;100.00;102061.03;5009054;28;20190;-76
2021/09/01 08:22:39;;;;;;;10.60;5.63;;;;;;;17.25;100.00;102054.00;5012111;28;20169;-76
2021/09/01 08:25:06;;;;;;;8.55;5.03;;;;;;;17.44;100.00;102066.81;4975590;28;20233;-75
2021/09/01 08:27:32;;;;;;;7.93;4.88;;;;;;;17.47;100.00;102063.50;5005319;28;20257;-76
2021/09/01 08:30:02;;;;;;;11.68;5.50;;;;;;;17.29;100.00;102074.31;4993934;28;20212;-76
2021/09/01 08:32:30;;;;;;;12.32;5.13;;;;;;;17.39;100.00;102066.84;5010736;28;20356;-75
2021/09/01 08:34:56;;;;;;;12.65;5.10;;;;;;;17.61;100.00;102070.00;4994414;28;20263;-76
2021/09/01 08:37:22;;;;;;;11.40;5.15;;;;;;;17.45;100.00;102073.97;5011054;28;20505;-75
2021/09/01 08:39:47;;;;;;;11.68;5.10;;;;;;;17.51;100.00;102075.56;5035542;28;20189;-76
2021/09/01 08:42:13;;;;;;;11.35;5.63;;;;;;;17.39;100.00;102083.31;5012452;28;20224;-75
2021/09/01 08:44:40;;;;;;;12.15;6.03;;;;;;;17.54;100.00;102069.50;5018383;28;20192;-76
2021/09/01 08:47:08;;;;;;;12.52;5.53;;;;;;;17.75;100.00;102074.59;5014613;28;20232;-77
2021/09/01 08:49:33;;;;;;;9.40;5.45;;;;;;;17.82;100.00;102077.03;4997187;28;20196;-76
2021/09/01 08:52:00;;;;;;;7.93;4.95;;;;;;;17.83;100.00;102078.66;5009641;28;20236;-77
2021/09/01 08:54:25;;;;;;;10.40;5.40;;;;;;;17.86;100.00;102078.09;4997337;28;20272;-76
2021/09/01 08:56:51;;;;;;;10.90;5.15;;;;;;;17.76;100.00;102087.25;5013381;28;20712;-77
2021/09/01 08:59:19;;;;;;;10.65;5.55;;;;;;;17.77;100.00;102074.31;5013516;28;20181;-75
2021/09/01 09:01:53;;;;;;;9.23;5.40;;;;;;;17.82;100.00;102077.03;5007124;28;20224;-74
2021/09/01 09:04:29;;;;;;;11.75;5.60;;;;;;;18.03;100.00;102073.03;4999322;28;20255;-75
2021/09/01 09:06:59;;;;;;;8.73;4.63;;;;;;;18.28;100.00;102077.25;4978046;28;20713;-76
2021/09/01 09:09:29;;;;;;;10.57;4.55;;;;;;;18.32;100.00;102083.00;4997405;28;20204;-77
2021/09/01 09:11:58;;;;;;;7.93;4.43;;;;;;;18.58;100.00;102076.97;5010229;28;20219;-76
2021/09/01 09:14:40;;;;;;;9.30;4.95;;;;;;;18.66;100.00;102079.06;5018088;28;20556;-78
2021/09/01 09:17:13;;;;;;;9.43;4.95;;;;;;;18.79;100.00;102076.47;5021248;28;20224;-78
2021/09/01 09:19:59;;;;;;;9.13;4.90;;;;;;;18.57;100.00;102065.13;4965382;28;20217;-76
2021/09/01 09:22:30;;;;;;;11.57;5.20;;;;;;;18.29;100.00;102067.88;5014223;28;20312;-73
2021/09/01 09:25:21;;;;;;;10.23;4.70;;;;;;;18.47;100.00;102067.16;4997471;28;20671;-71
2021/09/01 09:27:57;;;;;;;8.43;4.85;;;;;;;18.62;100.00;102056.00;5027674;28;20221;-73
2021/09/01 09:30:32;;;;;;;9.85;5.32;;;;;;;18.56;100.00;102057.16;5012290;28;20243;-75
2021/09/01 09:33:16;;;;;;;8.70;4.38;;;;;;;18.94;100.00;102059.78;5029323;28;20221;-74
2021/09/01 09:36:02;;;;;;;10.45;4.47;;;;;;;18.89;100.00;102060.66;4996837;28;20221;-75
2021/09/01 09:38:43;;;;;;;10.60;5.20;;;;;;;18.84;100.00;102068.13;4981220;28;20892;-74
2021/09/01 09:41:20;;;;;;;8.48;4.25;;;;;;;19.07;100.00;102065.44;4982265;28;20220;-74
2021/09/01 09:43:54;;;;;;;9.27;4.32;;;;;;;19.07;100.00;102059.91;4997345;28;20275;-72
2021/09/01 09:46:20;;;;;;;9.23;4.65;;;;;;;19.19;100.00;102063.06;4996634;28;20220;-73
2021/09/01 09:48:48;;;;;;;10.80;5.00;;;;;;;19.43;100.00;102061.09;4980445;28;20181;-74
2021/09/01 09:51:42;;;;;;;9.15;4.50;;;;;;;19.22;100.00;102058.91;4994996;28;20236;-75
2021/09/01 09:54:19;;;;;;;10.45;4.68;;;;;;;19.31;100.00;102055.22;4983408;28;20635;-77
2021/09/01 09:56:49;;;;;;;8.88;4.70;;;;;;;19.52;100.00;102062.88;5011608;28;20214;-74
2021/09/01 09:59:21;;;;;;;10.70;4.70;;;;;;;19.70;100.00;102059.31;4996389;28;20192;-76
2021/09/01 10:01:51;;;;;;;9.27;4.32;;;;;;;19.25;100.00;102061.91;5011747;28;20224;-74
2021/09/01 10:04:24;;;;;;;7.95;4.53;;;;;;;19.11;100.00;102060.16;4996537;28;20181;-75
2021/09/01 10:06:50;;;;;;;8.98;4.30;;;;;;;18.99;100.00;102057.81;4979403;28;20601;-76
2021/09/01 10:09:15;;;;;;;7.75;4.50;;;;;;;19.30;100.00;102059.91;4994710;28;20204;-75
2021/09/01 10:11:45;;;;;;;7.07;4.30;;;;;;;19.62;100.00;102061.94;5028322;28;20217;-72
2021/09/01 10:14:13;;;;;;;9.77;4.72;;;;;;;19.41;100.00;102060.56;4995103;28;20213;-74
2021/09/01 10:16:45;;;;;;;11.82;5.07;;;;;;;19.35;100.00;102067.28;4995610;28;20213;-75
2021/09/01 10:19:14;;;;;;;9.38;4.63;;;;;;;19.70;100.00;102059.31;4980404;28;20189;-76
2021/09/01 12:57:12;;;;;;;7.75;5.68;;;;;;;23.02;86.92;101999.19;4994591;28;20305;-76
2021/09/01 12:59:41;;;;;;;6.85;5.15;;;;;;;23.52;87.23;102004.00;4982510;28;20193;-74
2021/09/01 13:02:09;;;;;;;7.78;5.30;;;;;;;23.87;84.92;102000.13;4996396;28;20225;-77
2021/09/01 13:04:35;;;;;;;7.97;5.50;;;;;;;23.41;86.79;102004.66;4977762;28;20588;-74
2021/09/01 13:07:02;;;;;;;7.35;5.15;;;;;;;23.51;86.34;102007.09;5009460;28;20264;-76
2021/09/01 13:09:33;;;;;;;8.38;5.40;;;;;;;23.79;81.88;101995.38;5012792;28;20237;-76
2021/09/01 13:11:58;;;;;;;7.53;4.53;;;;;;;24.23;82.33;101998.59;4996214;28;20726;-76
2021/09/01 13:14:24;;;;;;;8.27;4.90;;;;;;;24.15;78.63;101999.44;4980595;28;20185;-74
2021/09/01 13:16:50;;;;;;;7.20;5.22;;;;;;;23.45;77.21;102000.09;4991659;28;20795;-74
2021/09/01 13:19:15;;;;;;;7.28;5.07;;;;;;;23.85;78.10;101989.34;4990760;28;20208;-74
2021/09/01 13:21:41;;;;;;;7.32;4.50;;;;;;;24.45;74.79;101991.72;4995779;28;20296;-75
2021/09/01 13:24:08;;;;;;;7.95;5.20;;;;;;;24.49;74.27;101987.13;4996850;28;20643;-75
2021/09/01 13:26:37;;;;;;;6.43;4.85;;;;;;;24.20;75.73;101990.94;4991209;28;20257;-73
2021/09/01 13:29:02;;;;;;;7.97;5.38;;;;;;;23.66;80.48;101997.19;5009039;28;20220;-74
2021/09/01 13:31:28;;;;;;;7.53;5.13;;;;;;;23.31;84.03;101993.84;5007728;28;20271;-74
2021/09/01 13:33:56;;;;;;;6.85;4.90;;;;;;;23.70;82.49;102000.16;4979739;28;20239;-74
2021/09/01 13:36:22;;;;;;;8.32;5.15;;;;;;;23.54;83.03;102003.69;4963062;28;20231;-75
2021/09/01 13:38:47;;;;;;;8.35;5.30;;;;;;;23.57;82.27;101999.13;5011000;28;20493;-75
2021/09/01 13:41:13;;;;;;;8.15;5.68;;;;;;;23.50;86.95;102002.69;5009402;28;20602;-73
2021/09/01 13:43:39;;;;;;;6.97;4.93;;;;;;;23.64;80.03;101982.84;4999244;28;20191;-75
2021/09/01 13:46:04;;;;;;;6.97;5.40;;;;;;;23.75;82.39;101973.00;5021118;28;20702;-74
2021/09/01 13:48:32;;;;;;;8.40;5.82;;;;;;;23.62;81.59;101976.75;4995412;28;20283;-74
2021/09/01 13:50:58;;;;;;;7.43;5.68;;;;;;;23.57;79.90;101965.81;4995456;28;20303;-75
2021/09/01 13:53:24;;;;;;;6.95;5.38;;;;;;;23.62;83.28;101962.88;5012100;28;20184;-74